Time;durP1;ratioP1;P1;durP2;ratioP2;P2;SDS_P1;SDS_P2;PMS_P1;PMS_P2;Temp;Humidity;BMP_temperature;BMP_pressure;BME280_temperature;BME280_humidity;BME280_pressure;Samples;Min_cycle;Max_cycle;Signal;HPM_P1;HPM_P2
2023/05/04 00:01:18;;;;;;;;;12.25;10.00;;;;;;;;119952;1181;25322;-63
2023/05/04 00:03:47;;;;;;;;;15.33;13.67;;;;;;;;119913;1190;25039;-63
2023/05/04 00:06:15;;;;;;;;;14.33;12.33;;;;;;;;119937;1182;24665;-63
2023/05/04 00:08:43;;;;;;;;;13.00;11.00;;;;;;;;119918;1190;25633;-63
2023/05/04 00:11:12;;;;;;;;;17.33;15.00;;;;;;;;119924;1190;25304;-62
2023/05/04 00:13:40;;;;;;;;;14.33;11.33;;;;;;;;119941;1190;24909;-63
2023/05/04 00:16:08;;;;;;;;;10.00;9.00;;;;;;;;119912;1181;24882;-63
2023/05/04 00:18:38;;;;;;;;;13.67;12.00;;;;;;;;119916;1190;25142;-63
2023/05/04 00:21:06;;;;;;;;;13.25;13.25;;;;;;;;119893;1190;25665;-63
2023/05/04 00:23:35;;;;;;;;;18.25;14.00;;;;;;;;119901;1190;24791;-63
2023/05/04 00:26:03;;;;;;;;;14.75;12.25;;;;;;;;119923;1190;25244;-62
2023/05/04 00:28:32;;;;;;;;;18.75;15.00;;;;;;;;119886;1190;25179;-63
2023/05/04 00:31:00;;;;;;;;;15.00;12.00;;;;;;;;119944;1190;25267;-63
2023/05/04 00:33:29;;;;;;;;;18.00;13.33;;;;;;;;119917;1179;25536;-63
2023/05/04 00:35:57;;;;;;;;;17.00;14.25;;;;;;;;119923;1186;24904;-62
2023/05/04 00:38:25;;;;;;;;;13.75;10.50;;;;;;;;119946;1182;24657;-62
2023/05/04 00:40:53;;;;;;;;;15.33;13.00;;;;;;;;119938;1190;26333;-63
2023/05/04 00:43:21;;;;;;;;;12.50;12.00;;;;;;;;119933;1190;25754;-62
2023/05/04 00:45:50;;;;;;;;;12.00;11.00;;;;;;;;119939;1190;25420;-63
2023/05/04 00:48:18;;;;;;;;;15.00;13.33;;;;;;;;120118;1182;25059;-63
2023/05/04 00:50:46;;;;;;;;;17.33;12.67;;;;;;;;119806;1183;25129;-63
2023/05/04 00:53:15;;;;;;;;;14.00;12.50;;;;;;;;119810;1191;25613;-63
2023/05/04 00:55:43;;;;;;;;;13.75;12.00;;;;;;;;119714;1191;25569;-63
2023/05/04 00:58:11;;;;;;;;;14.33;12.33;;;;;;;;119926;1182;24970;-63
2023/05/04 01:00:40;;;;;;;;;16.25;14.50;;;;;;;;119830;1191;25018;-63
2023/05/04 01:03:09;;;;;;;;;13.00;11.00;;;;;;;;119907;1187;25291;-63
2023/05/04 01:05:42;;;;;;;;;13.33;12.67;;;;;;;;119903;1190;25159;-63
2023/05/04 01:08:16;;;;;;;;;14.75;12.00;;;;;;;;119915;1190;25140;-63
2023/05/04 01:11:03;;;;;;;;;15.67;15.00;;;;;;;;119733;1190;24715;-62
2023/05/04 01:13:34;;;;;;;;;14.25;13.00;;;;;;;;119893;1182;25649;-62
2023/05/04 01:16:02;;;;;;;;;16.25;15.50;;;;;;;;119900;1190;25756;-62
2023/05/04 01:18:30;;;;;;;;;16.25;13.50;;;;;;;;119934;1190;24832;-63
2023/05/04 01:20:58;;;;;;;;;16.25;12.25;;;;;;;;119938;1182;25549;-62
2023/05/04 01:23:27;;;;;;;;;13.25;13.00;;;;;;;;119917;1190;24747;-62
2023/05/04 01:26:20;;;;;;;;;13.50;13.50;;;;;;;;119934;1190;25243;-63
2023/05/04 01:28:52;;;;;;;;;14.25;10.75;;;;;;;;119902;1187;25536;-62
2023/05/04 01:31:22;;;;;;;;;14.00;12.00;;;;;;;;119744;1190;25215;-62
2023/05/04 01:33:52;;;;;;;;;10.50;10.00;;;;;;;;119883;1190;25451;-61
2023/05/04 01:36:21;;;;;;;;;12.00;12.00;;;;;;;;119890;1182;25411;-73
2023/05/04 01:38:53;;;;;;;;;13.00;10.50;;;;;;;;119806;1191;25443;-71
2023/05/04 01:41:22;;;;;;;;;15.33;11.33;;;;;;;;119836;1183;24940;-69
2023/05/04 01:43:50;;;;;;;;;11.25;11.25;;;;;;;;119913;1187;24695;-66
2023/05/04 01:46:18;;;;;;;;;16.25;13.00;;;;;;;;119908;1191;25344;-70
2023/05/04 01:48:47;;;;;;;;;15.33;14.00;;;;;;;;119815;1190;25072;-76
2023/05/04 01:51:15;;;;;;;;;13.00;10.75;;;;;;;;119883;1190;25207;-80
2023/05/04 01:53:43;;;;;;;;;14.00;13.00;;;;;;;;119930;1190;25300;-69
2023/05/04 01:56:12;;;;;;;;;10.00;9.00;;;;;;;;119918;1190;25409;-74
2023/05/04 01:58:40;;;;;;;;;13.00;12.00;;;;;;;;119932;1190;25789;-75
2023/05/04 02:01:08;;;;;;;;;12.75;11.25;;;;;;;;119919;1186;24834;-88
2023/05/04 02:03:36;;;;;;;;;13.00;11.67;;;;;;;;119953;1181;25028;-74
2023/05/04 02:06:05;;;;;;;;;12.67;11.67;;;;;;;;119907;1190;25039;-75
2023/05/04 02:08:34;;;;;;;;;9.50;7.00;;;;;;;;119904;1190;25294;-74
2023/05/04 02:11:02;;;;;;;;;15.50;15.50;;;;;;;;119934;1190;25637;-71
2023/05/04 02:13:30;;;;;;;;;11.25;11.25;;;;;;;;119945;1190;25020;-72
2023/05/04 02:15:58;;;;;;;;;13.50;11.50;;;;;;;;119899;1190;25233;-66
2023/05/04 02:18:27;;;;;;;;;11.50;11.50;;;;;;;;119937;1177;25264;-64
2023/05/04 02:20:55;;;;;;;;;15.33;10.67;;;;;;;;119928;1190;24846;-73
2023/05/04 02:23:23;;;;;;;;;13.00;12.00;;;;;;;;119937;1190;25175;-73
2023/05/04 02:25:53;;;;;;;;;7.75;7.75;;;;;;;;119910;1187;25328;-74
2023/05/04 02:28:22;;;;;;;;;13.33;12.00;;;;;;;;119925;1178;25100;-65
2023/05/04 02:30:50;;;;;;;;;12.00;11.33;;;;;;;;119925;1191;25330;-63
2023/05/04 02:33:18;;;;;;;;;13.00;11.75;;;;;;;;119882;1191;25298;-63
2023/05/04 02:35:46;;;;;;;;;15.00;12.25;;;;;;;;119926;1182;25480;-63
2023/05/04 02:38:15;;;;;;;;;14.00;12.50;;;;;;;;119915;1191;25672;-62
2023/05/04 02:40:43;;;;;;;;;12.25;12.25;;;;;;;;119904;1191;25627;-65
2023/05/04 02:43:11;;;;;;;;;12.67;12.00;;;;;;;;119930;1190;25604;-64
2023/05/04 02:45:40;;;;;;;;;9.75;9.50;;;;;;;;119886;1182;24731;-65
2023/05/04 02:48:08;;;;;;;;;9.50;9.00;;;;;;;;119926;1190;25592;-65
2023/05/04 02:50:36;;;;;;;;;12.50;11.25;;;;;;;;119909;1190;25090;-65
2023/05/04 02:53:04;;;;;;;;;6.50;6.00;;;;;;;;119955;1182;25040;-66
2023/05/04 02:55:33;;;;;;;;;10.00;10.00;;;;;;;;119920;1182;25676;-65
2023/05/04 02:58:01;;;;;;;;;11.25;11.25;;;;;;;;119905;1190;25284;-65
2023/05/04 03:00:29;;;;;;;;;11.00;9.00;;;;;;;;119911;1191;25042;-66
2023/05/04 03:02:57;;;;;;;;;12.00;8.00;;;;;;;;119918;1182;24987;-65
2023/05/04 03:05:26;;;;;;;;;12.00;10.67;;;;;;;;119916;1182;24900;-65
2023/05/04 03:07:54;;;;;;;;;11.25;10.00;;;;;;;;119901;1191;25125;-65
2023/05/04 03:10:22;;;;;;;;;7.67;6.00;;;;;;;;119796;1188;25314;-64
2023/05/04 03:12:50;;;;;;;;;10.00;10.00;;;;;;;;119897;1190;24974;-64
2023/05/04 03:15:19;;;;;;;;;11.00;10.00;;;;;;;;119892;1190;25161;-64
2023/05/04 03:17:47;;;;;;;;;15.00;10.00;;;;;;;;119909;1190;25158;-64
2023/05/04 03:20:15;;;;;;;;;14.50;11.50;;;;;;;;119885;1190;26269;-65
2023/05/04 03:22:44;;;;;;;;;13.00;10.00;;;;;;;;119911;1182;25669;-65
2023/05/04 03:25:12;;;;;;;;;12.50;10.50;;;;;;;;119905;1190;24924;-64
2023/05/04 03:27:40;;;;;;;;;10.33;8.67;;;;;;;;119896;1190;25180;-65
2023/05/04 03:30:09;;;;;;;;;9.25;7.50;;;;;;;;119908;1190;25392;-65
2023/05/04 03:32:39;;;;;;;;;10.67;10.00;;;;;;;;119902;1190;25141;-65
2023/05/04 03:35:08;;;;;;;;;12.33;10.33;;;;;;;;119905;1190;24838;-65
2023/05/04 03:37:39;;;;;;;;;13.00;12.50;;;;;;;;119935;1190;25124;-64
2023/05/04 03:40:07;;;;;;;;;12.75;10.75;;;;;;;;119931;1190;24763;-64
2023/05/04 03:42:37;;;;;;;;;8.75;8.75;;;;;;;;119909;1182;24965;-64
2023/05/04 03:45:05;;;;;;;;;11.00;8.67;;;;;;;;119920;1182;25099;-65
2023/05/04 03:47:34;;;;;;;;;12.25;9.25;;;;;;;;119928;1182;24963;-64
2023/05/04 03:50:02;;;;;;;;;9.00;6.00;;;;;;;;119895;1190;25168;-64
2023/05/04 03:52:31;;;;;;;;;9.50;9.50;;;;;;;;119895;1190;24840;-64
2023/05/04 03:54:59;;;;;;;;;15.33;11.00;;;;;;;;119906;1190;25368;-65
2023/05/04 03:57:27;;;;;;;;;12.00;10.00;;;;;;;;119906;1182;24756;-64
2023/05/04 03:59:56;;;;;;;;;16.00;12.00;;;;;;;;119929;1182;24821;-64
2023/05/04 04:02:25;;;;;;;;;10.25;9.00;;;;;;;;119909;1190;25099;-64
2023/05/04 04:04:53;;;;;;;;;9.25;8.00;;;;;;;;119890;1190;26079;-64
2023/05/04 04:07:21;;;;;;;;;10.00;9.00;;;;;;;;119928;1190;25381;-65
2023/05/04 04:09:51;;;;;;;;;11.50;9.75;;;;;;;;119929;1190;25429;-66
2023/05/04 04:12:19;;;;;;;;;12.00;9.67;;;;;;;;119922;1190;25615;-65
2023/05/04 04:14:47;;;;;;;;;9.00;7.00;;;;;;;;119914;1190;25988;-65
2023/05/04 04:17:16;;;;;;;;;9.75;7.50;;;;;;;;119902;1181;24993;-64
2023/05/04 04:19:44;;;;;;;;;8.00;7.00;;;;;;;;119886;1187;25076;-64
2023/05/04 04:22:12;;;;;;;;;9.00;9.00;;;;;;;;119902;1191;25350;-65
2023/05/04 04:24:41;;;;;;;;;8.67;7.00;;;;;;;;119909;1191;25661;-65
2023/05/04 04:27:09;;;;;;;;;13.50;9.50;;;;;;;;119852;1191;25604;-65
2023/05/04 04:29:38;;;;;;;;;8.67;7.00;;;;;;;;119856;1191;25085;-64
2023/05/04 04:32:07;;;;;;;;;10.25;10.00;;;;;;;;120079;1186;24801;-64
2023/05/04 04:34:35;;;;;;;;;9.50;9.50;;;;;;;;119993;1186;25071;-64
2023/05/04 04:37:04;;;;;;;;;9.25;9.25;;;;;;;;119918;1182;25510;-64
2023/05/04 04:39:33;;;;;;;;;10.67;10.00;;;;;;;;119916;1181;25026;-65
2023/05/04 04:42:01;;;;;;;;;9.00;9.00;;;;;;;;119947;1186;25698;-64
2023/05/04 04:44:29;;;;;;;;;11.00;9.00;;;;;;;;119930;1190;24943;-64
2023/05/04 04:46:58;;;;;;;;;4.00;4.00;;;;;;;;119899;1190;25193;-65
2023/05/04 04:49:26;;;;;;;;;11.50;10.00;;;;;;;;119914;1190;25272;-65
2023/05/04 04:51:54;;;;;;;;;9.00;9.00;;;;;;;;119893;1190;25096;-65
2023/05/04 04:54:23;;;;;;;;;9.33;8.00;;;;;;;;119932;1183;25136;-66
2023/05/04 04:56:52;;;;;;;;;9.00;9.00;;;;;;;;119879;1190;25651;-64
2023/05/04 04:59:23;;;;;;;;;10.00;8.33;;;;;;;;119938;1190;25271;-65
2023/05/04 05:01:51;;;;;;;;;8.33;8.33;;;;;;;;119923;1190;25468;-65
2023/05/04 05:04:21;;;;;;;;;11.75;10.00;;;;;;;;119905;1190;26115;-65
2023/05/04 05:06:50;;;;;;;;;9.25;8.00;;;;;;;;119934;1190;25028;-68
2023/05/04 05:09:18;;;;;;;;;8.33;8.33;;;;;;;;119927;1190;24964;-68
2023/05/04 05:11:46;;;;;;;;;11.50;10.00;;;;;;;;119887;1190;25512;-68
2023/05/04 05:14:15;;;;;;;;;13.00;10.75;;;;;;;;119933;1190;24850;-69
2023/05/04 05:16:43;;;;;;;;;11.50;9.25;;;;;;;;119925;1182;24739;-69
2023/05/04 05:19:12;;;;;;;;;14.25;9.50;;;;;;;;119922;1190;25402;-67
2023/05/04 05:21:40;;;;;;;;;8.25;7.50;;;;;;;;119909;1181;24857;-68
2023/05/04 05:24:08;;;;;;;;;6.75;6.75;;;;;;;;119864;1190;25176;-68
2023/05/04 05:26:36;;;;;;;;;8.25;8.00;;;;;;;;119907;1190;25265;-68
2023/05/04 05:29:05;;;;;;;;;11.00;9.00;;;;;;;;119941;1190;25222;-69
2023/05/04 05:31:33;;;;;;;;;10.33;7.67;;;;;;;;119949;1181;25191;-68
2023/05/04 05:34:01;;;;;;;;;9.50;9.50;;;;;;;;119886;1190;24746;-67
2023/05/04 05:36:30;;;;;;;;;7.50;7.00;;;;;;;;119917;1190;25158;-68
2023/05/04 05:38:58;;;;;;;;;9.00;6.75;;;;;;;;119916;1190;25714;-69
2023/05/04 05:41:26;;;;;;;;;7.00;5.75;;;;;;;;119891;1190;25439;-65
2023/05/04 05:43:54;;;;;;;;;7.75;7.75;;;;;;;;119908;1190;25195;-68
2023/05/04 05:46:23;;;;;;;;;7.75;7.75;;;;;;;;119900;1190;25443;-68
2023/05/04 05:48:52;;;;;;;;;8.00;7.67;;;;;;;;119921;1182;25158;-69
2023/05/04 05:51:20;;;;;;;;;8.00;6.00;;;;;;;;119947;1182;25694;-68
2023/05/04 05:53:48;;;;;;;;;8.67;7.33;;;;;;;;119913;1190;24804;-68
2023/05/04 05:56:17;;;;;;;;;9.00;7.75;;;;;;;;119918;1190;25237;-67
2023/05/04 05:58:45;;;;;;;;;6.50;6.25;;;;;;;;120031;1177;25149;-68
2023/05/04 06:01:13;;;;;;;;;9.75;8.00;;;;;;;;119921;1190;25197;-69
2023/05/04 06:03:41;;;;;;;;;9.00;8.00;;;;;;;;119928;1190;25395;-69
2023/05/04 06:06:11;;;;;;;;;9.67;8.67;;;;;;;;119973;1181;25327;-69
2023/05/04 06:08:40;;;;;;;;;9.00;8.00;;;;;;;;119890;1190;25363;-69
2023/05/04 06:11:08;;;;;;;;;10.00;7.00;;;;;;;;119928;1183;25042;-69
2023/05/04 06:13:36;;;;;;;;;10.00;9.00;;;;;;;;119927;1186;25523;-68
2023/05/04 06:16:05;;;;;;;;;9.33;8.00;;;;;;;;119915;1190;25584;-68
2023/05/04 06:18:33;;;;;;;;;9.25;8.25;;;;;;;;119931;1182;25078;-67
2023/05/04 06:21:01;;;;;;;;;11.25;8.50;;;;;;;;119933;1181;25562;-66
2023/05/04 06:23:30;;;;;;;;;10.00;8.00;;;;;;;;119913;1190;25702;-67
2023/05/04 06:25:58;;;;;;;;;7.00;4.75;;;;;;;;119920;1190;24762;-75
2023/05/04 06:28:26;;;;;;;;;8.00;7.00;;;;;;;;119894;1186;25382;-68
2023/05/04 06:30:55;;;;;;;;;10.33;9.00;;;;;;;;119909;1190;24866;-69
2023/05/04 06:33:23;;;;;;;;;5.67;4.33;;;;;;;;119914;1190;24716;-65
2023/05/04 06:35:52;;;;;;;;;11.25;9.75;;;;;;;;119924;1186;24844;-66
2023/05/04 06:38:20;;;;;;;;;17.33;11.00;;;;;;;;119893;1190;25522;-65
2023/05/04 06:40:49;;;;;;;;;12.00;9.67;;;;;;;;119900;1190;25368;-70
2023/05/04 06:43:17;;;;;;;;;9.00;9.00;;;;;;;;119931;1182;25949;-68
2023/05/04 06:45:45;;;;;;;;;8.00;8.00;;;;;;;;119917;1190;25183;-68
2023/05/04 06:48:14;;;;;;;;;11.50;9.25;;;;;;;;119904;1190;24883;-67
2023/05/04 06:50:42;;;;;;;;;12.67;8.33;;;;;;;;119921;1190;24991;-62
2023/05/04 06:53:10;;;;;;;;;13.50;10.00;;;;;;;;119922;1182;24903;-62
2023/05/04 06:55:39;;;;;;;;;12.25;8.00;;;;;;;;119791;1190;24880;-63
2023/05/04 06:58:07;;;;;;;;;16.75;11.50;;;;;;;;119911;1190;25099;-63
2023/05/04 07:00:35;;;;;;;;;10.75;10.25;;;;;;;;119943;1190;25361;-63
2023/05/04 07:03:04;;;;;;;;;10.33;7.67;;;;;;;;119992;1186;24699;-63
2023/05/04 07:05:34;;;;;;;;;9.33;8.33;;;;;;;;119867;1182;25694;-63
2023/05/04 07:08:03;;;;;;;;;9.50;8.00;;;;;;;;120010;1177;24898;-73
2023/05/04 07:10:31;;;;;;;;;10.50;8.00;;;;;;;;119891;1182;25300;-63
2023/05/04 07:13:00;;;;;;;;;9.25;7.50;;;;;;;;119926;1191;25592;-63
2023/05/04 07:15:29;;;;;;;;;9.00;9.00;;;;;;;;119892;1191;24905;-63
2023/05/04 07:17:57;;;;;;;;;13.00;10.25;;;;;;;;119919;1181;25050;-64
2023/05/04 07:20:26;;;;;;;;;13.50;8.50;;;;;;;;119933;1182;25741;-71
2023/05/04 07:22:57;;;;;;;;;10.00;8.00;;;;;;;;119912;1182;25159;-64
2023/05/04 07:25:26;;;;;;;;;11.75;8.00;;;;;;;;119875;1187;25753;-71
2023/05/04 07:27:55;;;;;;;;;13.00;10.00;;;;;;;;119731;1190;25110;-66
2023/05/04 07:30:23;;;;;;;;;10.75;7.75;;;;;;;;119909;1191;25713;-73
2023/05/04 07:32:51;;;;;;;;;9.75;8.00;;;;;;;;119902;1182;24701;-76
2023/05/04 07:35:20;;;;;;;;;8.75;8.75;;;;;;;;119917;1186;25670;-71
2023/05/04 07:37:48;;;;;;;;;5.00;3.00;;;;;;;;119883;1186;25589;-74
2023/05/04 07:40:17;;;;;;;;;6.50;6.50;;;;;;;;119888;1191;25036;-71
2023/05/04 07:42:45;;;;;;;;;6.25;5.25;;;;;;;;119909;1191;24803;-73
2023/05/04 07:45:15;;;;;;;;;9.50;6.75;;;;;;;;119815;1182;25161;-72
2023/05/04 07:47:44;;;;;;;;;8.50;6.00;;;;;;;;119888;1182;24939;-71
2023/05/04 07:50:12;;;;;;;;;8.50;7.75;;;;;;;;119862;1191;25109;-71
2023/05/04 07:52:41;;;;;;;;;10.00;8.50;;;;;;;;119921;1190;24819;-71
2023/05/04 07:55:09;;;;;;;;;9.00;8.25;;;;;;;;119934;1182;24987;-74
2023/05/04 07:57:38;;;;;;;;;9.50;8.00;;;;;;;;119916;1186;25592;-73
2023/05/04 08:00:08;;;;;;;;;8.67;6.33;;;;;;;;119924;1190;25440;-73
2023/05/04 08:02:36;;;;;;;;;10.75;6.25;;;;;;;;119897;1190;25179;-73
2023/05/04 08:05:05;;;;;;;;;10.50;9.00;;;;;;;;119988;1186;25474;-72
2023/05/04 08:07:34;;;;;;;;;7.00;6.00;;;;;;;;119905;1190;25796;-74
2023/05/04 08:10:02;;;;;;;;;7.50;7.50;;;;;;;;119933;1182;24831;-74
2023/05/04 08:12:31;;;;;;;;;8.33;6.67;;;;;;;;119872;1190;25025;-73
2023/05/04 08:15:00;;;;;;;;;9.00;5.00;;;;;;;;119985;1186;25297;-73
2023/05/04 08:17:28;;;;;;;;;8.00;8.00;;;;;;;;119898;1190;24942;-70
2023/05/04 08:19:56;;;;;;;;;9.25;5.75;;;;;;;;119931;1182;24803;-71
2023/05/04 08:22:25;;;;;;;;;6.00;6.00;;;;;;;;119870;1187;26023;-71
2023/05/04 08:24:53;;;;;;;;;9.00;6.50;;;;;;;;119868;1190;24918;-68
2023/05/04 08:27:22;;;;;;;;;6.67;5.33;;;;;;;;119909;1190;25559;-67
2023/05/04 08:29:50;;;;;;;;;7.25;7.25;;;;;;;;119906;1186;24845;-69
2023/05/04 08:32:18;;;;;;;;;10.25;9.00;;;;;;;;119930;1190;25600;-67
2023/05/04 08:34:46;;;;;;;;;10.25;7.00;;;;;;;;119926;1181;25130;-69
2023/05/04 08:37:15;;;;;;;;;9.00;6.00;;;;;;;;119931;1190;25615;-68
2023/05/04 08:39:43;;;;;;;;;9.00;5.75;;;;;;;;119915;1190;25072;-69
2023/05/04 08:42:11;;;;;;;;;9.00;8.00;;;;;;;;119947;1182;25181;-67
2023/05/04 08:44:40;;;;;;;;;7.25;7.25;;;;;;;;120014;1186;25577;-66
2023/05/04 08:47:11;;;;;;;;;9.50;6.25;;;;;;;;120079;1182;25525;-67
2023/05/04 08:49:39;;;;;;;;;8.00;6.00;;;;;;;;119891;1190;25355;-66
2023/05/04 08:52:07;;;;;;;;;6.25;6.25;;;;;;;;119873;1190;25318;-67
2023/05/04 08:54:38;;;;;;;;;7.00;7.00;;;;;;;;119944;1186;24765;-67
2023/05/04 08:57:06;;;;;;;;;11.33;7.67;;;;;;;;119898;1182;24978;-68
2023/05/04 08:59:36;;;;;;;;;7.00;4.75;;;;;;;;119892;1190;24739;-68
2023/05/04 09:02:05;;;;;;;;;7.33;6.00;;;;;;;;119908;1182;25113;-67
2023/05/04 09:04:33;;;;;;;;;5.00;5.00;;;;;;;;119755;1186;25264;-66
2023/05/04 09:07:02;;;;;;;;;8.00;8.00;;;;;;;;119933;1182;25420;-66
2023/05/04 09:09:30;;;;;;;;;6.25;5.00;;;;;;;;119913;1190;24999;-67
2023/05/04 09:11:59;;;;;;;;;6.00;6.00;;;;;;;;119910;1182;24847;-67
2023/05/04 09:14:34;;;;;;;;;7.75;6.75;;;;;;;;119935;1186;25672;-66
2023/05/04 09:17:12;;;;;;;;;5.00;4.00;;;;;;;;119803;1182;25261;-66
2023/05/04 09:19:42;;;;;;;;;6.00;5.25;;;;;;;;119882;1187;25009;-66
2023/05/04 09:22:15;;;;;;;;;7.33;5.33;;;;;;;;119919;1190;24943;-64
2023/05/04 09:24:45;;;;;;;;;8.00;7.50;;;;;;;;119911;1190;25452;-65
2023/05/04 09:27:17;;;;;;;;;7.00;6.00;;;;;;;;119821;1190;25041;-64
2023/05/04 09:29:52;;;;;;;;;5.33;5.00;;;;;;;;119886;1188;25721;-64
2023/05/04 09:32:20;;;;;;;;;6.50;4.50;;;;;;;;119747;1190;24792;-64
2023/05/04 09:34:52;;;;;;;;;9.00;5.50;;;;;;;;119896;1182;25281;-64
2023/05/04 09:37:21;;;;;;;;;7.50;5.00;;;;;;;;119929;1182;24865;-64
2023/05/04 09:39:54;;;;;;;;;6.00;6.00;;;;;;;;119940;1186;24985;-63
2023/05/04 09:42:25;;;;;;;;;6.33;6.33;;;;;;;;119937;1190;25439;-64
2023/05/04 09:45:12;;;;;;;;;6.00;5.50;;;;;;;;119768;1190;25376;-64
2023/05/04 09:47:40;;;;;;;;;7.25;5.25;;;;;;;;119939;1181;25087;-64
2023/05/04 09:50:21;;;;;;;;;6.50;5.00;;;;;;;;119904;1190;25117;-64
2023/05/04 09:52:50;;;;;;;;;6.00;6.00;;;;;;;;119918;1182;25101;-64
2023/05/04 09:55:19;;;;;;;;;6.67;5.00;;;;;;;;119938;1186;24794;-64
2023/05/04 09:57:49;;;;;;;;;6.25;5.00;;;;;;;;119908;1186;24903;-64
2023/05/04 10:00:18;;;;;;;;;7.00;6.50;;;;;;;;119903;1182;25218;-64
2023/05/04 10:02:47;;;;;;;;;8.33;6.33;;;;;;;;119917;1190;25609;-64
2023/05/04 10:05:17;;;;;;;;;6.00;6.00;;;;;;;;119744;1190;25082;-64
2023/05/04 10:07:46;;;;;;;;;8.33;5.67;;;;;;;;119904;1182;25532;-64
2023/05/04 10:10:14;;;;;;;;;7.00;4.00;;;;;;;;119945;1187;24718;-64
2023/05/04 10:12:45;;;;;;;;;7.50;6.75;;;;;;;;120003;1186;25060;-64
2023/05/04 10:15:14;;;;;;;;;7.50;7.25;;;;;;;;119897;1182;24911;-64
2023/05/04 10:18:01;;;;;;;;;8.00;5.75;;;;;;;;119778;1188;25537;-64
2023/05/04 10:20:42;;;;;;;;;3.33;3.00;;;;;;;;119995;1186;25272;-64
2023/05/04 10:24:06;;;;;;;;;5.33;5.00;;;;;;;;119926;1181;25279;-64
2023/05/04 10:26:46;;;;;;;;;5.50;5.50;;;;;;;;119973;1186;24936;-64
2023/05/04 10:29:22;;;;;;;;;6.00;5.00;;;;;;;;119902;1190;24829;-64
2023/05/04 10:31:52;;;;;;;;;5.50;5.50;;;;;;;;119873;1190;25640;-64
2023/05/04 10:34:27;;;;;;;;;7.25;5.25;;;;;;;;119927;1177;24958;-64
2023/05/04 10:36:56;;;;;;;;;6.50;5.25;;;;;;;;119986;1181;25435;-64
2023/05/04 10:39:30;;;;;;;;;3.50;3.50;;;;;;;;119888;1182;24851;-64
2023/05/04 10:42:05;;;;;;;;;4.25;4.25;;;;;;;;119913;1190;25709;-64
2023/05/04 10:44:51;;;;;;;;;4.75;4.75;;;;;;;;119921;1190;24949;-64
2023/05/04 10:47:33;;;;;;;;;5.67;5.67;;;;;;;;119989;1186;25514;-64
2023/05/04 10:50:03;;;;;;;;;8.50;6.00;;;;;;;;119903;1190;25366;-64
2023/05/04 10:52:43;;;;;;;;;5.67;4.33;;;;;;;;119935;1187;25213;-64
2023/05/04 10:55:12;;;;;;;;;5.33;5.33;;;;;;;;119885;1183;24841;-64
2023/05/04 10:57:50;;;;;;;;;6.00;5.00;;;;;;;;119932;1190;25277;-64
2023/05/04 11:00:19;;;;;;;;;5.00;5.00;;;;;;;;119976;1186;24943;-64
2023/05/04 11:02:48;;;;;;;;;6.25;5.00;;;;;;;;119752;1189;24873;-65
2023/05/04 11:05:18;;;;;;;;;4.25;4.00;;;;;;;;119934;1190;25015;-65
2023/05/04 11:07:51;;;;;;;;;5.75;5.75;;;;;;;;119738;1190;25413;-64
2023/05/04 11:10:24;;;;;;;;;4.00;3.00;;;;;;;;119915;1191;24971;-64
2023/05/04 11:12:59;;;;;;;;;4.75;4.00;;;;;;;;119903;1182;25234;-64
2023/05/04 11:15:31;;;;;;;;;4.00;4.00;;;;;;;;119927;1190;24986;-64
2023/05/04 11:17:59;;;;;;;;;5.33;4.00;;;;;;;;119911;1182;25063;-64
2023/05/04 11:20:28;;;;;;;;;6.33;6.33;;;;;;;;119907;1190;25449;-64
2023/05/04 11:22:57;;;;;;;;;5.00;4.00;;;;;;;;119902;1190;25125;-64
2023/05/04 11:25:26;;;;;;;;;4.67;4.67;;;;;;;;119905;1187;24810;-64
2023/05/04 11:27:57;;;;;;;;;3.50;3.50;;;;;;;;119910;1190;24890;-64
2023/05/04 11:30:31;;;;;;;;;3.00;3.00;;;;;;;;119926;1190;25459;-64
2023/05/04 11:33:01;;;;;;;;;3.33;3.33;;;;;;;;119919;1190;25185;-64
2023/05/04 11:35:29;;;;;;;;;4.00;3.00;;;;;;;;119875;1191;24944;-64
2023/05/04 11:37:58;;;;;;;;;3.00;3.00;;;;;;;;119999;1182;24652;-64
2023/05/04 11:40:26;;;;;;;;;5.00;5.00;;;;;;;;119878;1191;25200;-64
2023/05/04 11:42:56;;;;;;;;;6.00;4.33;;;;;;;;119901;1190;26283;-64
2023/05/04 11:45:31;;;;;;;;;3.00;3.00;;;;;;;;119884;1191;25024;-64
2023/05/04 11:48:00;;;;;;;;;3.00;3.00;;;;;;;;119896;1190;25248;-65
2023/05/04 11:50:29;;;;;;;;;3.00;3.00;;;;;;;;119898;1190;25236;-66
2023/05/04 11:53:08;;;;;;;;;6.00;4.00;;;;;;;;119897;1190;25342;-66
2023/05/04 11:55:37;;;;;;;;;5.00;3.00;;;;;;;;119895;1183;25329;-68
2023/05/04 11:58:06;;;;;;;;;1.75;1.75;;;;;;;;119725;1183;25597;-65
2023/05/04 12:00:38;;;;;;;;;4.50;3.50;;;;;;;;119908;1190;25206;-65
2023/05/04 12:03:08;;;;;;;;;3.50;3.50;;;;;;;;119934;1181;24860;-65
2023/05/04 12:05:36;;;;;;;;;4.00;4.00;;;;;;;;119731;1190;25332;-65
2023/05/04 12:08:06;;;;;;;;;4.75;3.25;;;;;;;;119845;1191;26401;-65
2023/05/04 12:10:34;;;;;;;;;3.33;3.00;;;;;;;;119906;1190;25015;-65
2023/05/04 12:13:02;;;;;;;;;3.75;3.75;;;;;;;;119989;1186;25232;-65
2023/05/04 12:15:34;;;;;;;;;2.50;2.25;;;;;;;;119884;1187;25197;-65
2023/05/04 12:18:02;;;;;;;;;9.00;5.25;;;;;;;;119977;1186;25056;-65
2023/05/04 12:20:31;;;;;;;;;5.00;5.00;;;;;;;;119919;1190;25216;-65
2023/05/04 12:23:07;;;;;;;;;5.00;4.00;;;;;;;;119993;1183;25620;-65
2023/05/04 12:25:35;;;;;;;;;3.00;3.00;;;;;;;;119908;1190;25099;-65
2023/05/04 12:28:15;;;;;;;;;3.00;2.67;;;;;;;;120028;1186;24901;-65
2023/05/04 12:30:43;;;;;;;;;4.00;3.00;;;;;;;;119911;1181;25566;-65
2023/05/04 12:33:11;;;;;;;;;4.00;4.00;;;;;;;;119884;1190;25376;-65
2023/05/04 12:35:39;;;;;;;;;3.00;3.00;;;;;;;;119831;1190;25335;-65
2023/05/04 12:38:08;;;;;;;;;7.67;6.00;;;;;;;;119910;1190;25079;-66
2023/05/04 12:40:37;;;;;;;;;2.50;2.00;;;;;;;;119950;1186;24830;-65
2023/05/04 12:43:05;;;;;;;;;4.00;3.00;;;;;;;;119939;1187;25648;-65
2023/05/04 12:45:34;;;;;;;;;3.25;3.25;;;;;;;;119973;1177;25102;-65
2023/05/04 12:48:02;;;;;;;;;4.00;2.00;;;;;;;;119991;1182;25273;-65
2023/05/04 12:50:30;;;;;;;;;3.00;3.00;;;;;;;;119932;1186;25345;-65
2023/05/04 12:52:59;;;;;;;;;2.75;2.00;;;;;;;;119935;1182;24956;-65
2023/05/04 12:55:27;;;;;;;;;3.00;3.00;;;;;;;;119932;1190;24747;-65
2023/05/04 12:57:56;;;;;;;;;3.33;3.33;;;;;;;;119925;1190;24853;-65
2023/05/04 13:00:24;;;;;;;;;7.67;3.00;;;;;;;;119739;1179;25790;-65
2023/05/04 13:02:53;;;;;;;;;4.00;3.00;;;;;;;;119932;1190;24808;-65
2023/05/04 13:05:22;;;;;;;;;2.67;2.67;;;;;;;;119922;1190;25024;-64
2023/05/04 13:07:52;;;;;;;;;2.67;2.67;;;;;;;;119911;1190;25136;-65
2023/05/04 13:10:20;;;;;;;;;5.00;3.67;;;;;;;;119891;1182;25499;-65
2023/05/04 13:12:48;;;;;;;;;2.00;2.00;;;;;;;;119900;1190;25070;-65
2023/05/04 13:15:17;;;;;;;;;4.50;4.00;;;;;;;;119935;1182;25466;-68
2023/05/04 13:17:45;;;;;;;;;3.75;2.50;;;;;;;;119923;1190;25055;-63
2023/05/04 13:20:14;;;;;;;;;3.33;3.00;;;;;;;;119936;1190;24881;-63
2023/05/04 13:22:45;;;;;;;;;5.00;4.25;;;;;;;;119928;1190;24913;-62
2023/05/04 13:25:13;;;;;;;;;3.00;3.00;;;;;;;;119898;1190;25124;-63
2023/05/04 13:27:43;;;;;;;;;4.00;3.00;;;;;;;;119901;1190;24846;-63
2023/05/04 13:30:11;;;;;;;;;7.00;3.00;;;;;;;;119940;1182;25313;-62
2023/05/04 13:32:40;;;;;;;;;3.50;3.00;;;;;;;;119927;1190;24911;-63
2023/05/04 13:35:09;;;;;;;;;3.00;1.00;;;;;;;;119918;1190;25014;-63
2023/05/04 13:37:37;;;;;;;;;2.00;2.00;;;;;;;;119916;1181;25044;-63
2023/05/04 13:40:06;;;;;;;;;2.33;2.00;;;;;;;;119908;1190;25002;-63
2023/05/04 13:42:34;;;;;;;;;4.00;4.00;;;;;;;;119908;1182;25138;-63
2023/05/04 13:45:06;;;;;;;;;4.50;3.50;;;;;;;;119738;1184;24707;-63
2023/05/04 13:47:38;;;;;;;;;3.00;3.00;;;;;;;;119890;1190;25515;-63
2023/05/04 13:50:07;;;;;;;;;4.25;2.50;;;;;;;;119933;1177;25419;-62
2023/05/04 13:52:36;;;;;;;;;4.00;4.00;;;;;;;;119911;1190;24766;-63
2023/05/04 13:55:04;;;;;;;;;2.75;2.75;;;;;;;;119891;1182;25663;-62
2023/05/04 13:57:33;;;;;;;;;5.33;3.00;;;;;;;;119915;1190;25416;-62
2023/05/04 14:00:01;;;;;;;;;4.75;4.00;;;;;;;;119927;1182;25073;-62
2023/05/04 14:02:35;;;;;;;;;4.25;3.50;;;;;;;;119909;1181;24907;-63
2023/05/04 14:05:04;;;;;;;;;5.00;3.50;;;;;;;;119923;1190;25739;-62
2023/05/04 14:07:33;;;;;;;;;4.00;4.00;;;;;;;;119919;1181;25414;-63
2023/05/04 14:10:02;;;;;;;;;5.00;4.25;;;;;;;;119713;1189;25262;-62
2023/05/04 14:12:30;;;;;;;;;4.50;3.75;;;;;;;;119919;1191;24829;-63
2023/05/04 14:15:00;;;;;;;;;3.33;3.00;;;;;;;;119878;1188;24954;-64
2023/05/04 14:17:28;;;;;;;;;5.00;3.00;;;;;;;;119921;1186;24850;-64
2023/05/04 14:19:57;;;;;;;;;5.00;3.75;;;;;;;;119904;1186;25398;-64
2023/05/04 14:22:26;;;;;;;;;4.00;3.50;;;;;;;;119868;1187;25143;-64
2023/05/04 14:24:55;;;;;;;;;3.67;3.00;;;;;;;;119891;1189;24821;-63
2023/05/04 14:27:23;;;;;;;;;3.00;3.00;;;;;;;;119889;1190;25443;-63
2023/05/04 14:29:51;;;;;;;;;4.00;4.00;;;;;;;;119965;1186;25096;-63
2023/05/04 14:32:20;;;;;;;;;2.00;2.00;;;;;;;;119948;1186;25002;-63
2023/05/04 14:34:48;;;;;;;;;4.67;3.00;;;;;;;;119924;1186;24751;-63